sensor_id;sensor_type;location;lat;lon;timestamp;P1;durP1;ratioP1;P2;durP2;ratioP2
55989;SDS011;41875;55.806;38.082;2022-09-25T12:22:00;5.35;;;2.97;;
55989;SDS011;41875;55.806;38.082;2022-09-25T12:24:47;7.25;;;3.55;;
55989;SDS011;41875;55.806;38.082;2022-09-25T12:27:27;6.13;;;3.40;;
55989;SDS011;41875;55.806;38.082;2022-09-25T12:30:12;5.68;;;2.90;;
55989;SDS011;41875;55.806;38.082;2022-09-25T12:35:44;6.75;;;3.72;;
55989;SDS011;41875;55.806;38.082;2022-09-25T12:38:31;8.07;;;3.50;;
55989;SDS011;41875;55.806;38.082;2022-09-25T12:41:07;7.57;;;3.90;;
55989;SDS011;41875;55.806;38.082;2022-09-25T12:43:43;7.97;;;3.58;;
55989;SDS011;41875;55.806;38.082;2022-09-25T12:46:20;8.80;;;3.88;;
55989;SDS011;41875;55.806;38.082;2022-09-25T12:48:54;6.22;;;3.22;;
55989;SDS011;41875;55.806;38.082;2022-09-25T12:51:28;8.55;;;3.65;;
55989;SDS011;41875;55.806;38.082;2022-09-25T12:54:12;9.32;;;3.90;;
55989;SDS011;41875;55.806;38.082;2022-09-25T12:57:03;7.68;;;3.45;;
55989;SDS011;41875;55.806;38.082;2022-09-25T12:59:41;7.57;;;3.60;;
55989;SDS011;41875;55.806;38.082;2022-09-25T13:02:20;7.38;;;3.45;;
55989;SDS011;41875;55.806;38.082;2022-09-25T13:07:33;6.72;;;2.72;;
55989;SDS011;41875;55.806;38.082;2022-09-25T13:10:18;7.82;;;3.70;;
55989;SDS011;41875;55.806;38.082;2022-09-25T13:12:53;21.70;;;10.02;;
55989;SDS011;41875;55.806;38.082;2022-09-25T13:15:27;7.22;;;3.40;;
55989;SDS011;41875;55.806;38.082;2022-09-25T13:18:02;7.38;;;3.75;;
55989;SDS011;41875;55.806;38.082;2022-09-25T13:20:46;7.68;;;3.50;;
55989;SDS011;41875;55.806;38.082;2022-09-25T13:23:29;11.25;;;5.55;;
55989;SDS011;41875;55.806;38.082;2022-09-25T13:26:10;8.70;;;4.43;;
55989;SDS011;41875;55.806;38.082;2022-09-25T13:28:47;9.70;;;5.10;;
55989;SDS011;41875;55.806;38.082;2022-09-25T13:31:25;10.77;;;5.75;;
55989;SDS011;41875;55.806;38.082;2022-09-25T13:33:56;8.85;;;5.70;;
55989;SDS011;41875;55.806;38.082;2022-09-25T13:36:39;8.63;;;4.35;;
55989;SDS011;41875;55.806;38.082;2022-09-25T13:39:17;9.43;;;4.55;;
55989;SDS011;41875;55.806;38.082;2022-09-25T13:42:15;9.98;;;3.92;;
55989;SDS011;41875;55.806;38.082;2022-09-25T13:45:00;11.25;;;4.72;;
55989;SDS011;41875;55.806;38.082;2022-09-25T13:50:29;18.52;;;7.95;;
55989;SDS011;41875;55.806;38.082;2022-09-25T13:56:11;8.45;;;4.38;;
55989;SDS011;41875;55.806;38.082;2022-09-25T13:59:18;9.30;;;5.05;;
55989;SDS011;41875;55.806;38.082;2022-09-25T14:01:50;13.55;;;5.90;;
55989;SDS011;41875;55.806;38.082;2022-09-25T14:04:32;11.73;;;4.90;;
55989;SDS011;41875;55.806;38.082;2022-09-25T14:07:05;9.30;;;4.82;;
55989;SDS011;41875;55.806;38.082;2022-09-25T14:09:41;11.48;;;5.72;;
55989;SDS011;41875;55.806;38.082;2022-09-25T14:12:31;10.90;;;5.22;;
55989;SDS011;41875;55.806;38.082;2022-09-25T14:15:19;10.50;;;4.32;;
55989;SDS011;41875;55.806;38.082;2022-09-25T14:17:54;24.73;;;8.70;;
55989;SDS011;41875;55.806;38.082;2022-09-25T14:20:32;14.48;;;5.97;;
55989;SDS011;41875;55.806;38.082;2022-09-25T14:23:05;20.70;;;7.72;;
55989;SDS011;41875;55.806;38.082;2022-09-25T14:25:53;10.27;;;5.38;;
55989;SDS011;41875;55.806;38.082;2022-09-25T14:28:33;10.50;;;5.25;;
55989;SDS011;41875;55.806;38.082;2022-09-25T14:31:17;10.82;;;5.03;;
55989;SDS011;41875;55.806;38.082;2022-09-25T14:34:11;9.63;;;5.05;;
55989;SDS011;41875;55.806;38.082;2022-09-25T14:36:56;15.95;;;8.38;;
55989;SDS011;41875;55.806;38.082;2022-09-25T14:39:36;21.67;;;9.90;;
55989;SDS011;41875;55.806;38.082;2022-09-25T14:42:25;14.50;;;8.77;;
55989;SDS011;41875;55.806;38.082;2022-09-25T14:48:28;15.23;;;7.65;;
55989;SDS011;41875;55.806;38.082;2022-09-25T14:51:04;11.55;;;5.55;;
55989;SDS011;41875;55.806;38.082;2022-09-25T14:53:37;16.48;;;8.35;;
55989;SDS011;41875;55.806;38.082;2022-09-25T14:56:12;15.25;;;7.70;;
55989;SDS011;41875;55.806;38.082;2022-09-25T14:58:45;17.38;;;9.85;;
55989;SDS011;41875;55.806;38.082;2022-09-25T15:01:19;18.65;;;10.80;;
55989;SDS011;41875;55.806;38.082;2022-09-25T15:03:55;25.27;;;10.30;;
55989;SDS011;41875;55.806;38.082;2022-09-25T15:06:26;20.30;;;8.48;;
55989;SDS011;41875;55.806;38.082;2022-09-25T15:08:57;11.27;;;5.43;;
55989;SDS011;41875;55.806;38.082;2022-09-25T15:11:37;19.20;;;9.05;;
55989;SDS011;41875;55.806;38.082;2022-09-25T15:14:10;12.50;;;6.00;;
55989;SDS011;41875;55.806;38.082;2022-09-25T15:16:43;15.55;;;7.03;;
55989;SDS011;41875;55.806;38.082;2022-09-25T15:19:32;13.90;;;6.20;;
55989;SDS011;41875;55.806;38.082;2022-09-25T15:22:09;12.95;;;6.43;;
55989;SDS011;41875;55.806;38.082;2022-09-25T15:24:44;17.52;;;8.70;;
55989;SDS011;41875;55.806;38.082;2022-09-25T15:27:16;14.65;;;6.38;;
55989;SDS011;41875;55.806;38.082;2022-09-25T15:29:45;11.57;;;5.47;;
55989;SDS011;41875;55.806;38.082;2022-09-25T15:32:18;13.13;;;6.07;;
55989;SDS011;41875;55.806;38.082;2022-09-25T15:34:52;10.65;;;5.00;;
55989;SDS011;41875;55.806;38.082;2022-09-25T15:37:33;12.80;;;6.13;;
55989;SDS011;41875;55.806;38.082;2022-09-25T15:40:10;11.85;;;5.93;;
55989;SDS011;41875;55.806;38.082;2022-09-25T15:42:46;15.68;;;6.10;;
55989;SDS011;41875;55.806;38.082;2022-09-25T15:48:20;12.52;;;6.63;;
55989;SDS011;41875;55.806;38.082;2022-09-25T15:50:53;12.07;;;6.07;;
55989;SDS011;41875;55.806;38.082;2022-09-25T15:53:24;12.88;;;6.35;;
55989;SDS011;41875;55.806;38.082;2022-09-25T15:58:48;11.93;;;6.22;;
55989;SDS011;41875;55.806;38.082;2022-09-25T16:01:22;14.38;;;6.43;;
55989;SDS011;41875;55.806;38.082;2022-09-25T16:09:54;17.00;;;6.60;;
55989;SDS011;41875;55.806;38.082;2022-09-25T16:12:27;12.30;;;6.10;;
55989;SDS011;41875;55.806;38.082;2022-09-25T16:18:19;12.93;;;7.40;;
55989;SDS011;41875;55.806;38.082;2022-09-25T16:20:54;15.32;;;7.38;;
55989;SDS011;41875;55.806;38.082;2022-09-25T16:23:36;13.20;;;6.40;;
55989;SDS011;41875;55.806;38.082;2022-09-25T16:26:12;12.63;;;6.30;;
55989;SDS011;41875;55.806;38.082;2022-09-25T16:28:52;13.25;;;6.65;;
55989;SDS011;41875;55.806;38.082;2022-09-25T16:31:28;11.18;;;5.20;;
55989;SDS011;41875;55.806;38.082;2022-09-25T16:34:00;13.82;;;6.50;;
55989;SDS011;41875;55.806;38.082;2022-09-25T16:36:38;11.15;;;6.13;;
55989;SDS011;41875;55.806;38.082;2022-09-25T16:39:13;11.98;;;5.80;;
55989;SDS011;41875;55.806;38.082;2022-09-25T16:41:49;12.10;;;5.95;;
55989;SDS011;41875;55.806;38.082;2022-09-25T16:47:03;10.98;;;5.45;;
55989;SDS011;41875;55.806;38.082;2022-09-25T16:49:43;11.18;;;5.60;;
55989;SDS011;41875;55.806;38.082;2022-09-25T16:52:16;10.40;;;5.28;;
55989;SDS011;41875;55.806;38.082;2022-09-25T16:54:50;10.07;;;5.65;;
55989;SDS011;41875;55.806;38.082;2022-09-25T16:57:20;10.00;;;5.38;;
55989;SDS011;41875;55.806;38.082;2022-09-25T16:59:50;10.80;;;5.70;;
55989;SDS011;41875;55.806;38.082;2022-09-25T17:02:26;10.80;;;5.50;;
55989;SDS011;41875;55.806;38.082;2022-09-25T17:05:04;13.05;;;5.55;;
55989;SDS011;41875;55.806;38.082;2022-09-25T17:07:35;8.95;;;5.03;;
55989;SDS011;41875;55.806;38.082;2022-09-25T17:10:11;11.15;;;5.63;;
55989;SDS011;41875;55.806;38.082;2022-09-25T17:12:42;10.00;;;4.80;;
55989;SDS011;41875;55.806;38.082;2022-09-25T17:15:22;9.50;;;4.80;;
55989;SDS011;41875;55.806;38.082;2022-09-25T17:17:59;10.35;;;5.03;;
55989;SDS011;41875;55.806;38.082;2022-09-25T17:20:29;8.82;;;3.97;;
55989;SDS011;41875;55.806;38.082;2022-09-25T17:23:01;9.15;;;4.32;;
55989;SDS011;41875;55.806;38.082;2022-09-25T17:28:04;8.60;;;4.43;;
55989;SDS011;41875;55.806;38.082;2022-09-25T17:30:34;8.68;;;4.40;;
55989;SDS011;41875;55.806;38.082;2022-09-25T17:33:04;9.40;;;5.15;;
55989;SDS011;41875;55.806;38.082;2022-09-25T17:35:37;11.02;;;5.97;;
55989;SDS011;41875;55.806;38.082;2022-09-25T17:38:09;10.95;;;5.55;;
55989;SDS011;41875;55.806;38.082;2022-09-25T17:40:41;10.40;;;5.90;;
55989;SDS011;41875;55.806;38.082;2022-09-25T17:43:13;10.50;;;5.93;;
55989;SDS011;41875;55.806;38.082;2022-09-25T17:45:43;14.30;;;6.65;;
55989;SDS011;41875;55.806;38.082;2022-09-25T17:48:15;13.90;;;6.22;;
55989;SDS011;41875;55.806;38.082;2022-09-25T17:50:50;12.35;;;6.43;;
55989;SDS011;41875;55.806;38.082;2022-09-25T17:53:20;11.88;;;5.95;;
55989;SDS011;41875;55.806;38.082;2022-09-25T17:55:56;10.35;;;5.80;;
55989;SDS011;41875;55.806;38.082;2022-09-25T17:58:28;10.13;;;5.05;;
55989;SDS011;41875;55.806;38.082;2022-09-25T18:00:58;11.52;;;6.05;;
55989;SDS011;41875;55.806;38.082;2022-09-25T18:03:29;12.02;;;6.47;;
55989;SDS011;41875;55.806;38.082;2022-09-25T18:05:58;13.32;;;7.30;;
55989;SDS011;41875;55.806;38.082;2022-09-25T18:08:28;12.95;;;7.15;;
55989;SDS011;41875;55.806;38.082;2022-09-25T18:10:58;12.85;;;6.47;;
55989;SDS011;41875;55.806;38.082;2022-09-25T18:13:29;10.30;;;5.63;;
55989;SDS011;41875;55.806;38.082;2022-09-25T18:16:03;13.25;;;6.95;;
55989;SDS011;41875;55.806;38.082;2022-09-25T18:18:34;15.13;;;8.13;;
55989;SDS011;41875;55.806;38.082;2022-09-25T18:21:17;19.15;;;9.57;;
55989;SDS011;41875;55.806;38.082;2022-09-25T18:24:03;17.42;;;8.25;;
55989;SDS011;41875;55.806;38.082;2022-09-25T18:26:34;12.23;;;6.10;;
55989;SDS011;41875;55.806;38.082;2022-09-25T18:29:06;11.57;;;6.18;;
55989;SDS011;41875;55.806;38.082;2022-09-25T18:31:35;11.40;;;5.80;;
55989;SDS011;41875;55.806;38.082;2022-09-25T18:34:04;11.25;;;5.55;;
55989;SDS011;41875;55.806;38.082;2022-09-25T18:36:33;11.85;;;5.75;;
55989;SDS011;41875;55.806;38.082;2022-09-25T18:39:07;12.95;;;7.05;;
55989;SDS011;41875;55.806;38.082;2022-09-25T18:41:38;18.95;;;9.20;;
55989;SDS011;41875;55.806;38.082;2022-09-25T18:44:08;17.95;;;7.85;;
55989;SDS011;41875;55.806;38.082;2022-09-25T18:46:38;24.48;;;11.57;;
55989;SDS011;41875;55.806;38.082;2022-09-25T18:49:10;22.92;;;10.77;;
55989;SDS011;41875;55.806;38.082;2022-09-25T18:51:42;17.77;;;9.75;;
55989;SDS011;41875;55.806;38.082;2022-09-25T18:54:11;17.73;;;9.15;;
55989;SDS011;41875;55.806;38.082;2022-09-25T18:56:46;10.57;;;5.75;;
55989;SDS011;41875;55.806;38.082;2022-09-25T18:59:15;13.40;;;7.03;;
55989;SDS011;41875;55.806;38.082;2022-09-25T19:01:45;13.57;;;7.18;;
55989;SDS011;41875;55.806;38.082;2022-09-25T19:09:11;12.50;;;6.88;;
55989;SDS011;41875;55.806;38.082;2022-09-25T19:11:43;13.10;;;6.65;;
55989;SDS011;41875;55.806;38.082;2022-09-25T19:14:13;14.00;;;7.38;;
55989;SDS011;41875;55.806;38.082;2022-09-25T19:16:45;15.57;;;6.85;;
55989;SDS011;41875;55.806;38.082;2022-09-25T19:19:14;15.00;;;7.25;;
55989;SDS011;41875;55.806;38.082;2022-09-25T19:21:42;15.50;;;8.20;;
55989;SDS011;41875;55.806;38.082;2022-09-25T19:24:11;11.85;;;6.50;;
55989;SDS011;41875;55.806;38.082;2022-09-25T19:26:40;13.35;;;6.72;;
55989;SDS011;41875;55.806;38.082;2022-09-25T19:29:11;11.57;;;6.65;;
55989;SDS011;41875;55.806;38.082;2022-09-25T19:31:40;11.68;;;6.82;;
55989;SDS011;41875;55.806;38.082;2022-09-25T19:34:09;14.07;;;7.07;;
55989;SDS011;41875;55.806;38.082;2022-09-25T19:36:41;12.93;;;7.20;;
55989;SDS011;41875;55.806;38.082;2022-09-25T19:39:10;14.13;;;6.57;;
55989;SDS011;41875;55.806;38.082;2022-09-25T19:41:39;12.63;;;6.63;;
55989;SDS011;41875;55.806;38.082;2022-09-25T19:44:09;12.70;;;6.65;;
55989;SDS011;41875;55.806;38.082;2022-09-25T19:46:46;18.08;;;9.05;;
55989;SDS011;41875;55.806;38.082;2022-09-25T19:49:16;13.77;;;7.15;;
55989;SDS011;41875;55.806;38.082;2022-09-25T19:51:49;13.25;;;6.85;;
55989;SDS011;41875;55.806;38.082;2022-09-25T19:54:18;13.07;;;7.35;;
55989;SDS011;41875;55.806;38.082;2022-09-25T19:56:46;16.65;;;7.03;;
55989;SDS011;41875;55.806;38.082;2022-09-25T19:59:16;14.65;;;6.35;;
55989;SDS011;41875;55.806;38.082;2022-09-25T20:01:46;14.70;;;7.93;;
55989;SDS011;41875;55.806;38.082;2022-09-25T20:04:14;14.05;;;7.72;;
55989;SDS011;41875;55.806;38.082;2022-09-25T20:06:50;14.30;;;7.32;;
55989;SDS011;41875;55.806;38.082;2022-09-25T20:09:25;15.07;;;8.50;;
55989;SDS011;41875;55.806;38.082;2022-09-25T20:14:28;12.10;;;6.65;;
55989;SDS011;41875;55.806;38.082;2022-09-25T20:16:59;14.93;;;6.95;;
55989;SDS011;41875;55.806;38.082;2022-09-25T20:19:35;12.65;;;6.97;;
55989;SDS011;41875;55.806;38.082;2022-09-25T20:22:04;13.30;;;7.30;;
55989;SDS011;41875;55.806;38.082;2022-09-25T20:24:35;16.60;;;7.82;;
55989;SDS011;41875;55.806;38.082;2022-09-25T20:27:04;19.45;;;9.70;;
55989;SDS011;41875;55.806;38.082;2022-09-25T20:32:03;21.35;;;10.48;;
55989;SDS011;41875;55.806;38.082;2022-09-25T20:34:32;13.85;;;7.25;;
55989;SDS011;41875;55.806;38.082;2022-09-25T20:37:03;14.02;;;7.22;;
55989;SDS011;41875;55.806;38.082;2022-09-25T20:39:34;15.30;;;8.73;;
55989;SDS011;41875;55.806;38.082;2022-09-25T20:42:03;23.10;;;9.63;;
55989;SDS011;41875;55.806;38.082;2022-09-25T20:44:32;18.50;;;8.85;;
55989;SDS011;41875;55.806;38.082;2022-09-25T20:47:02;16.10;;;8.65;;
55989;SDS011;41875;55.806;38.082;2022-09-25T20:49:32;16.67;;;8.68;;
55989;SDS011;41875;55.806;38.082;2022-09-25T20:52:01;16.13;;;8.30;;
55989;SDS011;41875;55.806;38.082;2022-09-25T20:54:32;19.23;;;8.88;;
55989;SDS011;41875;55.806;38.082;2022-09-25T20:57:03;16.27;;;7.90;;
55989;SDS011;41875;55.806;38.082;2022-09-25T20:59:32;14.52;;;7.68;;
55989;SDS011;41875;55.806;38.082;2022-09-25T21:02:02;16.13;;;8.45;;
55989;SDS011;41875;55.806;38.082;2022-09-25T21:04:32;17.13;;;8.57;;
55989;SDS011;41875;55.806;38.082;2022-09-25T21:07:03;14.40;;;8.57;;
55989;SDS011;41875;55.806;38.082;2022-09-25T21:09:32;16.30;;;8.40;;
55989;SDS011;41875;55.806;38.082;2022-09-25T21:12:01;16.70;;;8.57;;
55989;SDS011;41875;55.806;38.082;2022-09-25T21:14:40;16.25;;;8.02;;
55989;SDS011;41875;55.806;38.082;2022-09-25T21:17:10;18.63;;;9.27;;
55989;SDS011;41875;55.806;38.082;2022-09-25T21:19:45;18.30;;;8.85;;
55989;SDS011;41875;55.806;38.082;2022-09-25T21:22:13;17.88;;;8.52;;
55989;SDS011;41875;55.806;38.082;2022-09-25T21:24:42;16.13;;;8.32;;
55989;SDS011;41875;55.806;38.082;2022-09-25T21:27:11;16.83;;;8.40;;
55989;SDS011;41875;55.806;38.082;2022-09-25T21:29:40;16.27;;;7.68;;
55989;SDS011;41875;55.806;38.082;2022-09-25T21:32:10;16.35;;;7.90;;
55989;SDS011;41875;55.806;38.082;2022-09-25T21:34:39;14.40;;;6.80;;
55989;SDS011;41875;55.806;38.082;2022-09-25T21:37:08;16.25;;;7.82;;
55989;SDS011;41875;55.806;38.082;2022-09-25T21:39:39;14.60;;;7.07;;
55989;SDS011;41875;55.806;38.082;2022-09-25T21:42:08;15.48;;;8.18;;
55989;SDS011;41875;55.806;38.082;2022-09-25T21:44:40;13.85;;;7.45;;
55989;SDS011;41875;55.806;38.082;2022-09-25T21:47:11;13.15;;;6.68;;
55989;SDS011;41875;55.806;38.082;2022-09-25T21:49:47;16.23;;;8.02;;
55989;SDS011;41875;55.806;38.082;2022-09-25T21:52:18;17.27;;;7.85;;
55989;SDS011;41875;55.806;38.082;2022-09-25T21:54:46;15.57;;;8.00;;
55989;SDS011;41875;55.806;38.082;2022-09-25T21:57:15;19.20;;;8.43;;
55989;SDS011;41875;55.806;38.082;2022-09-25T21:59:44;15.55;;;8.32;;
55989;SDS011;41875;55.806;38.082;2022-09-25T22:02:23;15.52;;;7.05;;
55989;SDS011;41875;55.806;38.082;2022-09-25T22:04:51;14.73;;;6.93;;
55989;SDS011;41875;55.806;38.082;2022-09-25T22:07:22;13.32;;;6.70;;
55989;SDS011;41875;55.806;38.082;2022-09-25T22:09:51;14.38;;;7.22;;
55989;SDS011;41875;55.806;38.082;2022-09-25T22:12:19;12.93;;;7.03;;
55989;SDS011;41875;55.806;38.082;2022-09-25T22:14:49;14.27;;;6.95;;
55989;SDS011;41875;55.806;38.082;2022-09-25T22:17:20;17.58;;;7.97;;
55989;SDS011;41875;55.806;38.082;2022-09-25T22:19:53;15.63;;;7.45;;
55989;SDS011;41875;55.806;38.082;2022-09-25T22:22:21;14.32;;;7.13;;
55989;SDS011;41875;55.806;38.082;2022-09-25T22:24:50;16.30;;;8.20;;
55989;SDS011;41875;55.806;38.082;2022-09-25T22:27:18;16.42;;;7.32;;
55989;SDS011;41875;55.806;38.082;2022-09-25T22:29:47;15.93;;;8.73;;
55989;SDS011;41875;55.806;38.082;2022-09-25T22:32:15;17.27;;;9.30;;
55989;SDS011;41875;55.806;38.082;2022-09-25T22:34:44;14.75;;;8.57;;
55989;SDS011;41875;55.806;38.082;2022-09-25T22:37:14;16.08;;;8.85;;
55989;SDS011;41875;55.806;38.082;2022-09-25T22:39:44;15.32;;;6.80;;
55989;SDS011;41875;55.806;38.082;2022-09-25T22:42:12;15.48;;;7.75;;
55989;SDS011;41875;55.806;38.082;2022-09-25T22:44:40;14.98;;;7.65;;
55989;SDS011;41875;55.806;38.082;2022-09-25T22:47:09;16.00;;;7.85;;
55989;SDS011;41875;55.806;38.082;2022-09-25T22:49:37;14.10;;;7.15;;
55989;SDS011;41875;55.806;38.082;2022-09-25T22:52:06;13.30;;;7.53;;
55989;SDS011;41875;55.806;38.082;2022-09-25T22:54:35;14.60;;;7.30;;
55989;SDS011;41875;55.806;38.082;2022-09-25T22:57:04;15.75;;;8.43;;
55989;SDS011;41875;55.806;38.082;2022-09-25T22:59:32;13.90;;;7.20;;
55989;SDS011;41875;55.806;38.082;2022-09-25T23:02:01;13.18;;;6.32;;
55989;SDS011;41875;55.806;38.082;2022-09-25T23:04:29;15.02;;;7.00;;
55989;SDS011;41875;55.806;38.082;2022-09-25T23:06:58;14.32;;;6.90;;
55989;SDS011;41875;55.806;38.082;2022-09-25T23:09:26;16.95;;;7.97;;
55989;SDS011;41875;55.806;38.082;2022-09-25T23:11:56;15.57;;;6.72;;
55989;SDS011;41875;55.806;38.082;2022-09-25T23:14:25;15.35;;;7.97;;
55989;SDS011;41875;55.806;38.082;2022-09-25T23:16:57;13.50;;;7.10;;
55989;SDS011;41875;55.806;38.082;2022-09-25T23:19:26;14.30;;;7.63;;
55989;SDS011;41875;55.806;38.082;2022-09-25T23:21:55;15.20;;;7.05;;
55989;SDS011;41875;55.806;38.082;2022-09-25T23:26:52;17.08;;;8.70;;
55989;SDS011;41875;55.806;38.082;2022-09-25T23:29:22;13.93;;;7.72;;
55989;SDS011;41875;55.806;38.082;2022-09-25T23:31:51;15.23;;;7.72;;
55989;SDS011;41875;55.806;38.082;2022-09-25T23:34:19;17.65;;;8.50;;
55989;SDS011;41875;55.806;38.082;2022-09-25T23:36:48;16.67;;;7.43;;
55989;SDS011;41875;55.806;38.082;2022-09-25T23:39:17;13.68;;;7.57;;
55989;SDS011;41875;55.806;38.082;2022-09-25T23:41:46;15.02;;;7.60;;
55989;SDS011;41875;55.806;38.082;2022-09-25T23:44:15;15.07;;;7.22;;
55989;SDS011;41875;55.806;38.082;2022-09-25T23:49:13;15.82;;;7.72;;
55989;SDS011;41875;55.806;38.082;2022-09-25T23:51:42;15.23;;;7.95;;
55989;SDS011;41875;55.806;38.082;2022-09-25T23:54:11;19.02;;;8.57;;
55989;SDS011;41875;55.806;38.082;2022-09-25T23:56:40;15.20;;;7.18;;
